createdAt,value
2023-06-19T00:01:25.705Z,68.6
2023-06-19T00:11:25.677Z,68.6
2023-06-19T00:21:25.659Z,69.4
2023-06-19T00:31:25.612Z,70
2023-06-19T00:41:25.575Z,67.8
2023-06-19T00:51:25.534Z,65.8
2023-06-19T01:01:25.500Z,65.6
2023-06-19T01:11:25.470Z,66
2023-06-19T01:21:25.431Z,65.2
2023-06-19T01:31:25.393Z,64.2
2023-06-19T01:41:25.379Z,63.2
2023-06-19T01:51:25.320Z,63.8
2023-06-19T02:01:25.291Z,64.8
2023-06-19T02:11:25.244Z,65
2023-06-19T02:21:25.223Z,65.4
2023-06-19T02:31:25.184Z,66.2
2023-06-19T02:41:25.137Z,66
2023-06-19T02:51:25.111Z,65.8
2023-06-19T03:01:25.062Z,65.4
2023-06-19T03:11:25.036Z,65.4
2023-06-19T03:21:25.014Z,66
2023-06-19T03:31:24.977Z,66.6
2023-06-19T03:41:24.931Z,67.6
2023-06-19T03:51:24.911Z,68.2
2023-06-19T04:01:24.858Z,69
2023-06-19T04:11:24.858Z,71.2
2023-06-19T04:21:24.804Z,72.8
2023-06-19T04:31:24.763Z,73
2023-06-19T04:41:24.734Z,74
2023-06-19T04:51:24.684Z,74
2023-06-19T05:01:24.655Z,72.6
2023-06-19T05:11:24.620Z,72.2
2023-06-19T05:21:24.579Z,73.4
2023-06-19T05:31:24.542Z,74.2
2023-06-19T05:41:24.517Z,74.4
2023-06-19T05:51:24.505Z,73.6
2023-06-19T06:01:24.455Z,72.6
2023-06-19T06:21:24.376Z,71
2023-06-19T06:31:24.346Z,70.2
2023-06-19T06:41:24.417Z,68.8
2023-06-19T06:51:24.266Z,68.8
2023-06-19T07:01:24.253Z,68.2
2023-06-19T07:11:24.207Z,67.2
2023-06-19T07:21:24.164Z,64.4
2023-06-19T07:31:24.154Z,64
2023-06-19T07:41:24.146Z,64.6
2023-06-19T07:51:24.081Z,62.8
2023-06-19T08:01:24.026Z,61.6
2023-06-19T08:11:23.993Z,61
2023-06-19T08:21:23.979Z,61.8
2023-06-19T08:31:23.925Z,62.6
2023-06-19T08:41:23.891Z,62
2023-06-19T08:51:23.844Z,60
2023-06-19T09:01:23.841Z,60.6
2023-06-19T09:11:23.772Z,61.2
2023-06-19T09:21:23.939Z,60.6
2023-06-19T09:31:23.721Z,60
2023-06-19T09:41:23.685Z,59
2023-06-19T09:51:23.704Z,56
2023-06-19T10:01:23.829Z,54.6
2023-06-19T10:11:23.579Z,54.8
2023-06-19T10:21:23.555Z,55.4
2023-06-19T10:31:23.520Z,52.2
2023-06-19T10:41:23.500Z,51.4
2023-06-19T10:51:23.445Z,51.2
2023-06-19T11:01:23.405Z,49.2
2023-06-19T11:11:23.392Z,49.4
2023-06-19T11:21:23.314Z,50.4
2023-06-19T11:31:23.329Z,51.8
2023-06-19T11:41:23.254Z,51.2
2023-06-19T11:51:23.298Z,48.8
2023-06-19T12:01:23.183Z,47.2
2023-06-19T12:11:23.156Z,48.4
2023-06-19T12:21:23.137Z,48.6
2023-06-19T12:31:23.098Z,47.6
2023-06-19T12:41:23.045Z,47
2023-06-19T12:51:23.014Z,44.8
2023-06-19T13:01:23.217Z,41.4
2023-06-19T13:11:22.934Z,39.6
2023-06-19T13:21:22.910Z,42.6
2023-06-19T13:31:22.929Z,42.2
2023-06-19T13:41:22.908Z,41.2
2023-06-19T13:51:22.795Z,42.2
2023-06-19T14:01:22.801Z,42
2023-06-19T14:11:22.743Z,41.2
2023-06-19T14:21:22.714Z,42.4
2023-06-19T14:31:22.651Z,40
2023-06-19T14:41:22.717Z,40.4
2023-06-19T14:51:22.583Z,42.2
2023-06-19T15:11:22.556Z,39.6
2023-06-19T15:21:22.480Z,39
2023-06-19T15:31:22.498Z,39
2023-06-19T15:41:22.417Z,40
2023-06-19T15:51:22.425Z,40.2
2023-06-19T16:01:22.344Z,38.6
2023-06-19T16:11:22.295Z,37.8
2023-06-19T16:21:22.355Z,39
2023-06-19T16:31:22.245Z,38.6
2023-06-19T16:41:22.287Z,39.2
2023-06-19T16:51:22.220Z,38.8
2023-06-19T17:01:22.170Z,39.2
2023-06-19T17:11:22.107Z,39.8
2023-06-19T17:21:22.080Z,40.6
2023-06-19T17:31:22.100Z,41
2023-06-19T17:41:22.008Z,40.8
2023-06-19T17:51:21.986Z,41.8
2023-06-19T18:01:21.922Z,43
2023-06-19T18:11:21.929Z,43.4
2023-06-19T18:21:21.881Z,44.4
2023-06-19T18:31:21.852Z,45.4
2023-06-19T18:41:21.784Z,46.6
2023-06-19T18:51:21.746Z,48
2023-06-19T19:01:21.707Z,49.2
2023-06-19T19:11:21.666Z,50.6
2023-06-19T19:21:21.666Z,51.8
2023-06-19T19:31:21.595Z,53
2023-06-19T19:41:21.575Z,54.2
2023-06-19T19:51:21.586Z,55.2
2023-06-19T20:01:21.502Z,56.4
2023-06-19T20:11:21.482Z,58.2
2023-06-19T20:21:21.452Z,58.2
2023-06-19T20:31:21.423Z,58.8
2023-06-19T20:41:21.403Z,59.4
2023-06-19T20:51:21.361Z,60.2
2023-06-19T21:01:21.291Z,61
2023-06-19T21:11:21.279Z,61.8
2023-06-19T21:21:21.295Z,61.8
2023-06-19T21:31:21.176Z,61
2023-06-19T21:41:21.142Z,60.2
2023-06-19T21:51:21.263Z,60
2023-06-19T22:01:21.100Z,60.6
2023-06-19T22:11:21.088Z,61.6
2023-06-19T22:21:21.048Z,61.8
2023-06-19T22:31:20.965Z,61.6
2023-06-19T22:41:20.954Z,61.8
2023-06-19T22:51:20.904Z,62
2023-06-19T23:01:20.915Z,62.2
2023-06-19T23:11:20.830Z,62.4
2023-06-19T23:21:20.787Z,62.8
2023-06-19T23:31:20.758Z,63.2
2023-06-19T23:41:20.733Z,63.6
2023-06-19T23:51:20.695Z,64
